sensor_id;sensor_type;location;lat;lon;timestamp;pressure;altitude;pressure_sealevel;temperature;humidity
69127;BME280;56688;50.234;19.292;2022-12-24T00:00:14;97540.22;;;4.36;83.90
69127;BME280;56688;50.234;19.292;2022-12-24T00:02:41;97534.87;;;4.38;84.06
69127;BME280;56688;50.234;19.292;2022-12-24T00:05:09;97537.10;;;4.40;84.19
69127;BME280;56688;50.234;19.292;2022-12-24T00:07:36;97535.52;;;4.43;84.16
69127;BME280;56688;50.234;19.292;2022-12-24T00:10:04;97536.84;;;4.47;84.29
69127;BME280;56688;50.234;19.292;2022-12-24T00:12:31;97536.70;;;4.52;84.41
69127;BME280;56688;50.234;19.292;2022-12-24T00:14:58;97536.45;;;4.57;84.54
69127;BME280;56688;50.234;19.292;2022-12-24T00:17:25;97538.86;;;4.64;84.50
69127;BME280;56688;50.234;19.292;2022-12-24T00:19:51;97539.86;;;4.69;83.89
69127;BME280;56688;50.234;19.292;2022-12-24T00:22:18;97529.45;;;4.69;83.69
69127;BME280;56688;50.234;19.292;2022-12-24T00:24:45;97527.52;;;4.70;83.29
69127;BME280;56688;50.234;19.292;2022-12-24T00:27:12;97523.00;;;4.68;82.94
69127;BME280;56688;50.234;19.292;2022-12-24T00:29:38;97519.21;;;4.67;82.65
69127;BME280;56688;50.234;19.292;2022-12-24T00:32:05;97509.88;;;4.66;82.55
69127;BME280;56688;50.234;19.292;2022-12-24T00:34:36;97512.84;;;4.66;82.85
69127;BME280;56688;50.234;19.292;2022-12-24T00:37:04;97512.25;;;4.66;82.57
69127;BME280;56688;50.234;19.292;2022-12-24T00:39:31;97505.84;;;4.69;82.98
69127;BME280;56688;50.234;19.292;2022-12-24T00:41:58;97490.48;;;4.70;82.84
69127;BME280;56688;50.234;19.292;2022-12-24T00:44:25;97482.57;;;4.70;82.35
69127;BME280;56688;50.234;19.292;2022-12-24T00:46:52;97484.96;;;4.66;82.22
69127;BME280;56688;50.234;19.292;2022-12-24T00:49:19;97478.74;;;4.63;82.41
69127;BME280;56688;50.234;19.292;2022-12-24T00:51:45;97479.14;;;4.63;82.89
69127;BME280;56688;50.234;19.292;2022-12-24T00:54:13;97475.30;;;4.64;82.99
69127;BME280;56688;50.234;19.292;2022-12-24T00:56:40;97469.05;;;4.66;83.30
69127;BME280;56688;50.234;19.292;2022-12-24T00:59:06;97466.31;;;4.69;83.16
69127;BME280;56688;50.234;19.292;2022-12-24T01:01:33;97468.73;;;4.69;83.62
69127;BME280;56688;50.234;19.292;2022-12-24T01:04:02;97466.48;;;4.72;83.98
69127;BME280;56688;50.234;19.292;2022-12-24T01:06:44;97460.86;;;4.72;84.11
69127;BME280;56688;50.234;19.292;2022-12-24T01:09:11;97456.46;;;4.71;84.65
69127;BME280;56688;50.234;19.292;2022-12-24T01:11:38;97461.26;;;4.74;84.58
69127;BME280;56688;50.234;19.292;2022-12-24T01:14:05;97460.65;;;4.78;84.43
69127;BME280;56688;50.234;19.292;2022-12-24T01:16:32;97461.45;;;4.80;84.05
69127;BME280;56688;50.234;19.292;2022-12-24T01:18:58;97468.21;;;4.85;83.72
69127;BME280;56688;50.234;19.292;2022-12-24T01:21:25;97468.52;;;4.86;83.69
69127;BME280;56688;50.234;19.292;2022-12-24T01:23:52;97468.16;;;4.86;82.97
69127;BME280;56688;50.234;19.292;2022-12-24T01:26:19;97468.70;;;4.85;82.71
69127;BME280;56688;50.234;19.292;2022-12-24T01:28:46;97465.71;;;4.82;82.17
69127;BME280;56688;50.234;19.292;2022-12-24T01:31:15;97464.63;;;4.77;82.18
69127;BME280;56688;50.234;19.292;2022-12-24T01:33:43;97463.02;;;4.74;82.23
69127;BME280;56688;50.234;19.292;2022-12-24T01:36:11;97463.90;;;4.71;82.40
69127;BME280;56688;50.234;19.292;2022-12-24T01:38:38;97477.63;;;4.71;82.88
69127;BME280;56688;50.234;19.292;2022-12-24T01:41:05;97476.03;;;4.71;83.44
69127;BME280;56688;50.234;19.292;2022-12-24T01:43:47;97478.89;;;4.74;84.06
69127;BME280;56688;50.234;19.292;2022-12-24T01:46:30;97483.39;;;4.73;84.33
69127;BME280;56688;50.234;19.292;2022-12-24T01:49:00;97484.63;;;4.72;84.81
69127;BME280;56688;50.234;19.292;2022-12-24T01:51:34;97481.72;;;4.73;84.87
69127;BME280;56688;50.234;19.292;2022-12-24T01:56:44;97472.37;;;4.78;85.93
69127;BME280;56688;50.234;19.292;2022-12-24T01:59:14;97469.08;;;4.78;86.02
69127;BME280;56688;50.234;19.292;2022-12-24T02:01:42;97465.61;;;4.84;86.00
69127;BME280;56688;50.234;19.292;2022-12-24T02:04:15;97459.98;;;4.87;86.31
69127;BME280;56688;50.234;19.292;2022-12-24T02:06:43;97461.08;;;4.91;86.50
69127;BME280;56688;50.234;19.292;2022-12-24T02:09:10;97454.04;;;4.94;86.63
69127;BME280;56688;50.234;19.292;2022-12-24T02:11:38;97457.08;;;4.96;86.58
69127;BME280;56688;50.234;19.292;2022-12-24T02:14:06;97451.48;;;4.99;86.86
69127;BME280;56688;50.234;19.292;2022-12-24T02:16:55;97452.98;;;5.01;86.75
69127;BME280;56688;50.234;19.292;2022-12-24T02:32:34;97454.31;;;5.16;87.78
69127;BME280;56688;50.234;19.292;2022-12-24T02:35:09;97456.41;;;5.17;88.10
69127;BME280;56688;50.234;19.292;2022-12-24T02:37:51;97454.27;;;5.19;88.06
69127;BME280;56688;50.234;19.292;2022-12-24T02:40:28;97449.00;;;5.22;88.11
69127;BME280;56688;50.234;19.292;2022-12-24T02:43:02;97447.88;;;5.27;88.02
69127;BME280;56688;50.234;19.292;2022-12-24T02:45:31;97448.06;;;5.30;87.79
69127;BME280;56688;50.234;19.292;2022-12-24T02:47:59;97452.80;;;5.30;87.77
69127;BME280;56688;50.234;19.292;2022-12-24T02:50:27;97443.83;;;5.30;88.16
69127;BME280;56688;50.234;19.292;2022-12-24T02:52:54;97436.06;;;5.32;88.43
69127;BME280;56688;50.234;19.292;2022-12-24T02:55:26;97438.23;;;5.32;88.53
69127;BME280;56688;50.234;19.292;2022-12-24T03:00:43;97442.38;;;5.35;88.79
69127;BME280;56688;50.234;19.292;2022-12-24T03:03:26;97449.23;;;5.36;88.94
69127;BME280;56688;50.234;19.292;2022-12-24T03:06:01;97454.40;;;5.38;89.50
69127;BME280;56688;50.234;19.292;2022-12-24T03:11:07;97451.20;;;5.42;89.13
69127;BME280;56688;50.234;19.292;2022-12-24T03:13:35;97456.83;;;5.47;89.35
69127;BME280;56688;50.234;19.292;2022-12-24T03:16:06;97461.77;;;5.51;89.65
69127;BME280;56688;50.234;19.292;2022-12-24T03:18:37;97465.74;;;5.52;89.39
69127;BME280;56688;50.234;19.292;2022-12-24T03:21:12;97473.83;;;5.56;89.52
69127;BME280;56688;50.234;19.292;2022-12-24T03:23:41;97482.10;;;5.58;89.73
69127;BME280;56688;50.234;19.292;2022-12-24T03:26:10;97489.77;;;5.64;89.75
69127;BME280;56688;50.234;19.292;2022-12-24T03:28:39;97491.88;;;5.70;89.81
69127;BME280;56688;50.234;19.292;2022-12-24T03:31:08;97498.81;;;5.78;90.42
69127;BME280;56688;50.234;19.292;2022-12-24T03:33:35;97502.56;;;5.89;90.42
69127;BME280;56688;50.234;19.292;2022-12-24T03:36:04;97499.88;;;5.96;90.26
69127;BME280;56688;50.234;19.292;2022-12-24T03:38:31;97503.25;;;6.05;90.36
69127;BME280;56688;50.234;19.292;2022-12-24T03:40:58;97497.58;;;6.08;90.17
69127;BME280;56688;50.234;19.292;2022-12-24T03:43:25;97501.65;;;6.11;90.11
69127;BME280;56688;50.234;19.292;2022-12-24T03:45:52;97501.59;;;6.13;89.91
69127;BME280;56688;50.234;19.292;2022-12-24T03:48:19;97505.36;;;6.14;89.49
69127;BME280;56688;50.234;19.292;2022-12-24T03:50:45;97505.50;;;6.14;89.41
69127;BME280;56688;50.234;19.292;2022-12-24T03:53:12;97495.88;;;6.15;89.11
69127;BME280;56688;50.234;19.292;2022-12-24T03:55:39;97494.98;;;6.15;89.00
69127;BME280;56688;50.234;19.292;2022-12-24T03:58:06;97497.42;;;6.12;88.93
69127;BME280;56688;50.234;19.292;2022-12-24T04:00:32;97492.05;;;6.10;88.75
69127;BME280;56688;50.234;19.292;2022-12-24T04:02:59;97497.64;;;6.09;88.62
69127;BME280;56688;50.234;19.292;2022-12-24T04:05:26;97503.70;;;6.08;88.75
69127;BME280;56688;50.234;19.292;2022-12-24T04:07:53;97496.94;;;6.09;88.53
69127;BME280;56688;50.234;19.292;2022-12-24T04:10:20;97492.44;;;6.08;88.58
69127;BME280;56688;50.234;19.292;2022-12-24T04:12:47;97489.62;;;6.07;88.51
69127;BME280;56688;50.234;19.292;2022-12-24T04:15:13;97490.32;;;6.05;88.63
69127;BME280;56688;50.234;19.292;2022-12-24T04:17:40;97495.11;;;6.04;88.53
69127;BME280;56688;50.234;19.292;2022-12-24T04:20:07;97493.89;;;6.03;88.50
69127;BME280;56688;50.234;19.292;2022-12-24T04:22:35;97502.73;;;6.03;88.63
69127;BME280;56688;50.234;19.292;2022-12-24T04:25:02;97500.87;;;6.04;88.15
69127;BME280;56688;50.234;19.292;2022-12-24T04:27:28;97496.50;;;6.05;88.32
69127;BME280;56688;50.234;19.292;2022-12-24T04:29:56;97496.17;;;6.04;88.24
69127;BME280;56688;50.234;19.292;2022-12-24T04:32:25;97492.48;;;6.03;88.41
69127;BME280;56688;50.234;19.292;2022-12-24T04:34:52;97489.31;;;6.03;88.40
69127;BME280;56688;50.234;19.292;2022-12-24T04:37:19;97487.44;;;6.04;88.15
69127;BME280;56688;50.234;19.292;2022-12-24T04:39:46;97484.11;;;6.05;88.12
69127;BME280;56688;50.234;19.292;2022-12-24T04:42:13;97489.58;;;6.07;88.10
69127;BME280;56688;50.234;19.292;2022-12-24T04:44:40;97493.38;;;6.08;88.05
69127;BME280;56688;50.234;19.292;2022-12-24T04:47:07;97490.80;;;6.04;87.83
69127;BME280;56688;50.234;19.292;2022-12-24T04:49:34;97494.30;;;6.04;87.77
69127;BME280;56688;50.234;19.292;2022-12-24T04:52:00;97497.20;;;6.04;87.87
69127;BME280;56688;50.234;19.292;2022-12-24T04:54:27;97504.09;;;6.04;88.22
69127;BME280;56688;50.234;19.292;2022-12-24T04:56:54;97509.45;;;6.05;88.16
69127;BME280;56688;50.234;19.292;2022-12-24T04:59:21;97502.31;;;6.07;88.19
69127;BME280;56688;50.234;19.292;2022-12-24T05:01:47;97508.60;;;6.07;88.19
69127;BME280;56688;50.234;19.292;2022-12-24T05:04:14;97505.36;;;6.06;88.19
69127;BME280;56688;50.234;19.292;2022-12-24T05:06:41;97506.36;;;6.07;88.10
69127;BME280;56688;50.234;19.292;2022-12-24T05:09:08;97501.83;;;6.07;88.04
69127;BME280;56688;50.234;19.292;2022-12-24T05:11:34;97507.79;;;6.08;88.25
69127;BME280;56688;50.234;19.292;2022-12-24T05:14:02;97502.35;;;6.08;88.20
69127;BME280;56688;50.234;19.292;2022-12-24T05:16:29;97495.65;;;6.11;88.51
69127;BME280;56688;50.234;19.292;2022-12-24T05:18:56;97503.04;;;6.11;88.07
69127;BME280;56688;50.234;19.292;2022-12-24T05:21:23;97504.14;;;6.11;88.00
69127;BME280;56688;50.234;19.292;2022-12-24T05:23:51;97508.71;;;6.07;87.87
69127;BME280;56688;50.234;19.292;2022-12-24T05:29:03;97510.73;;;6.01;87.94
69127;BME280;56688;50.234;19.292;2022-12-24T05:31:32;97511.23;;;6.00;88.16
69127;BME280;56688;50.234;19.292;2022-12-24T05:33:59;97518.15;;;6.03;88.06
69127;BME280;56688;50.234;19.292;2022-12-24T05:36:26;97519.10;;;6.04;88.29
69127;BME280;56688;50.234;19.292;2022-12-24T05:38:53;97524.65;;;6.05;88.17
69127;BME280;56688;50.234;19.292;2022-12-24T05:41:20;97519.66;;;6.04;88.28
69127;BME280;56688;50.234;19.292;2022-12-24T05:43:47;97515.71;;;6.04;88.22
69127;BME280;56688;50.234;19.292;2022-12-24T05:46:16;97524.16;;;6.04;88.10
69127;BME280;56688;50.234;19.292;2022-12-24T05:48:46;97523.20;;;6.05;88.09
69127;BME280;56688;50.234;19.292;2022-12-24T05:51:14;97526.29;;;6.06;88.31
69127;BME280;56688;50.234;19.292;2022-12-24T05:53:45;97529.23;;;6.07;88.49
69127;BME280;56688;50.234;19.292;2022-12-24T05:56:15;97528.16;;;6.07;88.14
69127;BME280;56688;50.234;19.292;2022-12-24T05:58:43;97529.39;;;6.07;87.67
69127;BME280;56688;50.234;19.292;2022-12-24T06:01:11;97531.27;;;6.07;87.94
69127;BME280;56688;50.234;19.292;2022-12-24T06:03:38;97527.81;;;6.08;88.00
69127;BME280;56688;50.234;19.292;2022-12-24T06:06:08;97525.77;;;6.07;87.95
69127;BME280;56688;50.234;19.292;2022-12-24T06:08:36;97537.06;;;6.10;87.99
69127;BME280;56688;50.234;19.292;2022-12-24T06:11:07;97537.02;;;6.12;88.30
69127;BME280;56688;50.234;19.292;2022-12-24T06:13:35;97537.23;;;6.14;88.37
69127;BME280;56688;50.234;19.292;2022-12-24T06:16:04;97540.05;;;6.12;87.89
69127;BME280;56688;50.234;19.292;2022-12-24T06:18:33;97543.40;;;6.12;88.01
69127;BME280;56688;50.234;19.292;2022-12-24T06:21:01;97545.22;;;6.13;88.13
69127;BME280;56688;50.234;19.292;2022-12-24T06:23:30;97551.17;;;6.15;88.13
69127;BME280;56688;50.234;19.292;2022-12-24T06:25:58;97559.52;;;6.18;88.28
69127;BME280;56688;50.234;19.292;2022-12-24T06:28:27;97568.38;;;6.21;87.93
69127;BME280;56688;50.234;19.292;2022-12-24T06:30:54;97575.71;;;6.23;88.12
69127;BME280;56688;50.234;19.292;2022-12-24T06:33:29;97580.23;;;6.25;87.79
69127;BME280;56688;50.234;19.292;2022-12-24T06:35:56;97575.86;;;6.26;87.89
69127;BME280;56688;50.234;19.292;2022-12-24T06:38:23;97571.83;;;6.23;87.71
69127;BME280;56688;50.234;19.292;2022-12-24T06:40:50;97574.77;;;6.22;87.60
69127;BME280;56688;50.234;19.292;2022-12-24T06:43:17;97569.26;;;6.22;87.55
69127;BME280;56688;50.234;19.292;2022-12-24T06:45:45;97572.63;;;6.24;87.70
69127;BME280;56688;50.234;19.292;2022-12-24T06:48:13;97577.15;;;6.26;87.73
69127;BME280;56688;50.234;19.292;2022-12-24T06:50:40;97579.39;;;6.29;87.54
69127;BME280;56688;50.234;19.292;2022-12-24T06:53:08;97581.45;;;6.31;87.56
69127;BME280;56688;50.234;19.292;2022-12-24T06:55:36;97582.40;;;6.32;87.60
69127;BME280;56688;50.234;19.292;2022-12-24T06:58:03;97585.13;;;6.31;87.66
69127;BME280;56688;50.234;19.292;2022-12-24T07:00:30;97590.55;;;6.30;87.43
69127;BME280;56688;50.234;19.292;2022-12-24T07:02:57;97591.80;;;6.30;87.56
69127;BME280;56688;50.234;19.292;2022-12-24T07:05:24;97596.27;;;6.30;87.53
69127;BME280;56688;50.234;19.292;2022-12-24T07:07:51;97594.95;;;6.31;87.58
69127;BME280;56688;50.234;19.292;2022-12-24T07:10:19;97593.10;;;6.33;87.44
69127;BME280;56688;50.234;19.292;2022-12-24T07:12:47;97599.23;;;6.33;87.58
69127;BME280;56688;50.234;19.292;2022-12-24T07:15:16;97597.02;;;6.33;87.24
69127;BME280;56688;50.234;19.292;2022-12-24T07:17:43;97603.50;;;6.32;87.14
69127;BME280;56688;50.234;19.292;2022-12-24T07:20:12;97607.60;;;6.30;87.62
69127;BME280;56688;50.234;19.292;2022-12-24T07:22:41;97607.52;;;6.30;87.42
69127;BME280;56688;50.234;19.292;2022-12-24T07:25:09;97608.84;;;6.31;87.24
69127;BME280;56688;50.234;19.292;2022-12-24T07:27:36;97613.02;;;6.33;87.34
69127;BME280;56688;50.234;19.292;2022-12-24T07:30:03;97615.02;;;6.34;87.24
69127;BME280;56688;50.234;19.292;2022-12-24T07:32:30;97615.63;;;6.34;87.41
69127;BME280;56688;50.234;19.292;2022-12-24T07:34:57;97612.36;;;6.30;87.01
69127;BME280;56688;50.234;19.292;2022-12-24T07:37:24;97620.00;;;6.34;87.04
69127;BME280;56688;50.234;19.292;2022-12-24T07:39:51;97622.14;;;6.35;87.28
69127;BME280;56688;50.234;19.292;2022-12-24T07:42:17;97623.63;;;6.38;87.07
69127;BME280;56688;50.234;19.292;2022-12-24T07:44:44;97628.25;;;6.39;87.31
69127;BME280;56688;50.234;19.292;2022-12-24T07:47:11;97629.07;;;6.39;87.30
69127;BME280;56688;50.234;19.292;2022-12-24T07:49:38;97635.69;;;6.40;87.07
69127;BME280;56688;50.234;19.292;2022-12-24T07:52:05;97640.73;;;6.44;87.26
69127;BME280;56688;50.234;19.292;2022-12-24T07:54:32;97642.79;;;6.49;87.20
69127;BME280;56688;50.234;19.292;2022-12-24T07:57:00;97643.84;;;6.54;87.07
69127;BME280;56688;50.234;19.292;2022-12-24T07:59:26;97649.10;;;6.57;86.98
69127;BME280;56688;50.234;19.292;2022-12-24T08:01:53;97649.67;;;6.58;86.82
69127;BME280;56688;50.234;19.292;2022-12-24T08:04:20;97652.09;;;6.60;86.85
69127;BME280;56688;50.234;19.292;2022-12-24T08:06:47;97656.37;;;6.63;86.74
69127;BME280;56688;50.234;19.292;2022-12-24T08:09:14;97655.92;;;6.66;86.69
69127;BME280;56688;50.234;19.292;2022-12-24T08:11:41;97658.61;;;6.67;86.70
69127;BME280;56688;50.234;19.292;2022-12-24T08:14:17;97657.54;;;6.71;86.53
69127;BME280;56688;50.234;19.292;2022-12-24T08:16:44;97659.40;;;6.73;86.46
69127;BME280;56688;50.234;19.292;2022-12-24T08:19:11;97658.94;;;6.74;86.36
69127;BME280;56688;50.234;19.292;2022-12-24T08:21:37;97660.15;;;6.77;86.20
69127;BME280;56688;50.234;19.292;2022-12-24T08:24:04;97662.96;;;6.81;86.11
69127;BME280;56688;50.234;19.292;2022-12-24T08:26:31;97664.84;;;6.86;85.90
69127;BME280;56688;50.234;19.292;2022-12-24T08:28:58;97670.17;;;6.90;85.94
69127;BME280;56688;50.234;19.292;2022-12-24T08:31:25;97672.14;;;6.94;85.68
69127;BME280;56688;50.234;19.292;2022-12-24T08:33:52;97677.80;;;6.99;85.60
69127;BME280;56688;50.234;19.292;2022-12-24T08:36:19;97688.36;;;7.03;85.46
69127;BME280;56688;50.234;19.292;2022-12-24T08:38:46;97694.53;;;7.07;85.21
69127;BME280;56688;50.234;19.292;2022-12-24T08:41:12;97696.05;;;7.09;85.13
69127;BME280;56688;50.234;19.292;2022-12-24T08:43:39;97699.50;;;7.10;85.27
69127;BME280;56688;50.234;19.292;2022-12-24T08:46:06;97698.47;;;7.10;85.25
69127;BME280;56688;50.234;19.292;2022-12-24T08:48:33;97709.27;;;7.13;85.00
69127;BME280;56688;50.234;19.292;2022-12-24T08:51:07;97710.80;;;7.15;85.01
69127;BME280;56688;50.234;19.292;2022-12-24T08:53:34;97710.16;;;7.17;84.83
69127;BME280;56688;50.234;19.292;2022-12-24T08:56:03;97713.73;;;7.18;84.90
69127;BME280;56688;50.234;19.292;2022-12-24T08:58:30;97713.91;;;7.19;84.85
69127;BME280;56688;50.234;19.292;2022-12-24T09:00:58;97716.38;;;7.20;84.71
69127;BME280;56688;50.234;19.292;2022-12-24T09:03:26;97720.67;;;7.23;84.89
69127;BME280;56688;50.234;19.292;2022-12-24T09:05:53;97718.85;;;7.26;84.53
69127;BME280;56688;50.234;19.292;2022-12-24T09:08:20;97723.20;;;7.29;84.53
69127;BME280;56688;50.234;19.292;2022-12-24T09:10:47;97721.63;;;7.32;84.62
69127;BME280;56688;50.234;19.292;2022-12-24T09:13:14;97719.67;;;7.33;84.47
69127;BME280;56688;50.234;19.292;2022-12-24T09:15:41;97728.64;;;7.34;84.13
69127;BME280;56688;50.234;19.292;2022-12-24T09:18:08;97730.48;;;7.35;84.26
69127;BME280;56688;50.234;19.292;2022-12-24T09:20:34;97733.02;;;7.37;84.31
69127;BME280;56688;50.234;19.292;2022-12-24T09:23:01;97730.18;;;7.40;84.29
69127;BME280;56688;50.234;19.292;2022-12-24T09:25:28;97734.33;;;7.44;83.97
69127;BME280;56688;50.234;19.292;2022-12-24T09:27:55;97732.06;;;7.47;84.00
69127;BME280;56688;50.234;19.292;2022-12-24T09:30:21;97728.33;;;7.49;84.04
69127;BME280;56688;50.234;19.292;2022-12-24T09:32:50;97729.05;;;7.55;83.99
69127;BME280;56688;50.234;19.292;2022-12-24T09:35:17;97733.12;;;7.61;83.87
69127;BME280;56688;50.234;19.292;2022-12-24T09:37:44;97738.46;;;7.68;83.81
69127;BME280;56688;50.234;19.292;2022-12-24T09:40:22;97736.48;;;7.74;83.33
69127;BME280;56688;50.234;19.292;2022-12-24T09:42:52;97739.23;;;7.79;82.95
69127;BME280;56688;50.234;19.292;2022-12-24T09:45:35;97743.19;;;7.84;82.86
69127;BME280;56688;50.234;19.292;2022-12-24T09:48:12;97748.61;;;7.92;82.47
69127;BME280;56688;50.234;19.292;2022-12-24T09:50:49;97752.31;;;8.02;82.32
69127;BME280;56688;50.234;19.292;2022-12-24T09:53:26;97756.14;;;8.08;81.82
69127;BME280;56688;50.234;19.292;2022-12-24T09:56:03;97752.45;;;8.13;81.36
69127;BME280;56688;50.234;19.292;2022-12-24T09:58:38;97756.82;;;8.14;81.02
69127;BME280;56688;50.234;19.292;2022-12-24T10:01:06;97756.83;;;8.17;80.94
69127;BME280;56688;50.234;19.292;2022-12-24T10:03:33;97759.41;;;8.21;80.81
69127;BME280;56688;50.234;19.292;2022-12-24T10:06:07;97763.67;;;8.22;80.65
69127;BME280;56688;50.234;19.292;2022-12-24T10:14:11;97782.70;;;8.30;79.99
69127;BME280;56688;50.234;19.292;2022-12-24T10:25:19;97798.73;;;8.35;80.17
69127;BME280;56688;50.234;19.292;2022-12-24T10:27:47;97798.50;;;8.40;80.07
69127;BME280;56688;50.234;19.292;2022-12-24T10:30:16;97803.95;;;8.49;79.87
69127;BME280;56688;50.234;19.292;2022-12-24T10:32:47;97811.94;;;8.56;79.70
69127;BME280;56688;50.234;19.292;2022-12-24T10:37:43;97809.10;;;8.63;79.08
69127;BME280;56688;50.234;19.292;2022-12-24T10:40:24;97812.41;;;8.63;78.97
69127;BME280;56688;50.234;19.292;2022-12-24T10:42:52;97810.65;;;8.62;78.80
69127;BME280;56688;50.234;19.292;2022-12-24T10:45:21;97814.13;;;8.61;78.86
69127;BME280;56688;50.234;19.292;2022-12-24T10:47:51;97817.89;;;8.60;78.73
69127;BME280;56688;50.234;19.292;2022-12-24T10:50:38;97817.11;;;8.57;79.06
69127;BME280;56688;50.234;19.292;2022-12-24T10:53:20;97822.72;;;8.56;79.53
69127;BME280;56688;50.234;19.292;2022-12-24T10:55:50;97828.15;;;8.53;79.80
69127;BME280;56688;50.234;19.292;2022-12-24T10:58:26;97833.74;;;8.48;80.18
69127;BME280;56688;50.234;19.292;2022-12-24T11:00:53;97832.88;;;8.45;80.70
69127;BME280;56688;50.234;19.292;2022-12-24T11:03:24;97837.95;;;8.44;81.08
69127;BME280;56688;50.234;19.292;2022-12-24T11:08:33;97850.48;;;8.45;82.07
69127;BME280;56688;50.234;19.292;2022-12-24T11:11:04;97856.36;;;8.42;81.80
69127;BME280;56688;50.234;19.292;2022-12-24T11:13:35;97860.60;;;8.35;82.25
69127;BME280;56688;50.234;19.292;2022-12-24T11:16:14;97862.17;;;8.26;82.33
69127;BME280;56688;50.234;19.292;2022-12-24T11:18:46;97868.74;;;8.20;82.63
69127;BME280;56688;50.234;19.292;2022-12-24T11:21:20;97871.64;;;8.16;82.77
69127;BME280;56688;50.234;19.292;2022-12-24T11:23:53;97872.09;;;8.12;82.93
69127;BME280;56688;50.234;19.292;2022-12-24T11:26:23;97870.95;;;8.08;83.15
69127;BME280;56688;50.234;19.292;2022-12-24T11:31:29;97877.87;;;8.02;83.99
69127;BME280;56688;50.234;19.292;2022-12-24T11:33:58;97882.86;;;8.02;84.21
69127;BME280;56688;50.234;19.292;2022-12-24T11:36:25;97884.33;;;8.04;84.64
69127;BME280;56688;50.234;19.292;2022-12-24T11:38:55;97890.15;;;8.08;85.01
69127;BME280;56688;50.234;19.292;2022-12-24T11:41:24;97886.77;;;8.14;85.43
69127;BME280;56688;50.234;19.292;2022-12-24T11:44:01;97891.55;;;8.21;85.81
69127;BME280;56688;50.234;19.292;2022-12-24T11:46:37;97893.50;;;8.24;85.99
69127;BME280;56688;50.234;19.292;2022-12-24T11:54:37;97907.11;;;8.32;86.13
69127;BME280;56688;50.234;19.292;2022-12-24T11:57:11;97918.57;;;8.37;86.19
69127;BME280;56688;50.234;19.292;2022-12-24T11:59:43;97918.80;;;8.40;86.10
69127;BME280;56688;50.234;19.292;2022-12-24T12:04:40;97922.65;;;8.51;86.10
69127;BME280;56688;50.234;19.292;2022-12-24T12:07:13;97932.37;;;8.56;85.87
69127;BME280;56688;50.234;19.292;2022-12-24T12:09:46;97932.41;;;8.59;85.54
69127;BME280;56688;50.234;19.292;2022-12-24T12:12:18;97937.43;;;8.61;85.38
69127;BME280;56688;50.234;19.292;2022-12-24T12:14:51;97937.65;;;8.63;85.34
69127;BME280;56688;50.234;19.292;2022-12-24T12:19:57;97948.91;;;8.62;84.84
69127;BME280;56688;50.234;19.292;2022-12-24T12:24:55;97955.77;;;8.64;84.48
69127;BME280;56688;50.234;19.292;2022-12-24T12:27:42;97967.79;;;8.67;84.52
69127;BME280;56688;50.234;19.292;2022-12-24T12:30:15;97971.44;;;8.66;84.43
69127;BME280;56688;50.234;19.292;2022-12-24T12:38:28;97989.30;;;8.63;84.30
69127;BME280;56688;50.234;19.292;2022-12-24T12:41:00;97995.81;;;8.62;84.32
69127;BME280;56688;50.234;19.292;2022-12-24T12:57:22;98027.47;;;8.42;85.09
69127;BME280;56688;50.234;19.292;2022-12-24T12:59:55;98025.34;;;8.41;85.42
69127;BME280;56688;50.234;19.292;2022-12-24T13:02:31;98026.52;;;8.41;85.20
69127;BME280;56688;50.234;19.292;2022-12-24T13:10:38;98042.04;;;8.40;85.99
69127;BME280;56688;50.234;19.292;2022-12-24T13:13:24;98042.02;;;8.44;85.88
69127;BME280;56688;50.234;19.292;2022-12-24T13:18:57;98056.50;;;8.48;85.70
69127;BME280;56688;50.234;19.292;2022-12-24T13:21:29;98062.98;;;8.53;85.79
69127;BME280;56688;50.234;19.292;2022-12-24T13:24:06;98067.16;;;8.54;85.70
69127;BME280;56688;50.234;19.292;2022-12-24T13:26:59;98068.99;;;8.53;85.55
69127;BME280;56688;50.234;19.292;2022-12-24T13:29:38;98076.84;;;8.51;85.69
69127;BME280;56688;50.234;19.292;2022-12-24T13:34:52;98085.33;;;8.52;85.74
69127;BME280;56688;50.234;19.292;2022-12-24T13:37:33;98089.14;;;8.52;85.54
69127;BME280;56688;50.234;19.292;2022-12-24T13:53:05;98125.45;;;8.60;85.55
69127;BME280;56688;50.234;19.292;2022-12-24T13:56:02;98133.39;;;8.59;85.45
69127;BME280;56688;50.234;19.292;2022-12-24T13:58:32;98136.05;;;8.56;85.48
69127;BME280;56688;50.234;19.292;2022-12-24T14:01:02;98141.98;;;8.56;85.52
69127;BME280;56688;50.234;19.292;2022-12-24T14:03:35;98152.27;;;8.56;85.64
69127;BME280;56688;50.234;19.292;2022-12-24T14:06:10;98155.89;;;8.60;85.48
69127;BME280;56688;50.234;19.292;2022-12-24T14:08:42;98161.63;;;8.63;85.58
69127;BME280;56688;50.234;19.292;2022-12-24T14:11:18;98156.16;;;8.66;85.36
69127;BME280;56688;50.234;19.292;2022-12-24T14:16:20;98160.63;;;8.66;85.12
69127;BME280;56688;50.234;19.292;2022-12-24T14:24:34;98183.60;;;8.70;84.86
69127;BME280;56688;50.234;19.292;2022-12-24T14:27:24;98184.77;;;8.72;85.02
69127;BME280;56688;50.234;19.292;2022-12-24T14:30:07;98185.21;;;8.73;84.74
69127;BME280;56688;50.234;19.292;2022-12-24T14:32:36;98192.69;;;8.70;84.70
69127;BME280;56688;50.234;19.292;2022-12-24T14:38:06;98203.08;;;8.63;84.65
69127;BME280;56688;50.234;19.292;2022-12-24T14:40:36;98206.45;;;8.55;84.92
69127;BME280;56688;50.234;19.292;2022-12-24T14:43:19;98209.48;;;8.54;85.15
69127;BME280;56688;50.234;19.292;2022-12-24T14:45:54;98213.27;;;8.50;84.94
69127;BME280;56688;50.234;19.292;2022-12-24T14:48:32;98220.25;;;8.47;84.96
69127;BME280;56688;50.234;19.292;2022-12-24T14:56:34;98232.25;;;8.39;84.75
69127;BME280;56688;50.234;19.292;2022-12-24T14:59:14;98236.59;;;8.38;84.90
69127;BME280;56688;50.234;19.292;2022-12-24T15:02:20;98242.71;;;8.38;84.76
69127;BME280;56688;50.234;19.292;2022-12-24T15:07:45;98250.55;;;8.30;84.64
69127;BME280;56688;50.234;19.292;2022-12-24T15:10:22;98255.60;;;8.28;84.95
69127;BME280;56688;50.234;19.292;2022-12-24T15:12:53;98253.80;;;8.27;84.67
69127;BME280;56688;50.234;19.292;2022-12-24T15:15:21;98262.09;;;8.27;84.60